createdAt,value
2023-04-11T00:01:55.196Z,9.40
2023-04-11T00:04:25.632Z,9.40
2023-04-11T00:06:52.931Z,9.40
2023-04-11T00:09:20.051Z,9.30
2023-04-11T00:11:48.175Z,9.30
2023-04-11T00:14:15.306Z,9.20
2023-04-11T00:16:42.613Z,9.20
2023-04-11T00:19:09.798Z,9.20
2023-04-11T00:21:40.514Z,9.20
2023-04-11T00:24:08.684Z,9.20
2023-04-11T00:26:35.911Z,9.20
2023-04-11T00:29:02.990Z,9.20
2023-04-11T00:31:30.009Z,9.20
2023-04-11T00:33:57.126Z,9.20
2023-04-11T00:36:24.344Z,9.20
2023-04-11T00:38:51.272Z,9.20
2023-04-11T00:41:19.091Z,9.10
2023-04-11T00:43:47.219Z,9.20
2023-04-11T00:46:17.167Z,9.20
2023-04-11T00:48:44.835Z,9.20
2023-04-11T00:51:11.911Z,9.10
2023-04-11T00:53:38.870Z,9.20
2023-04-11T00:56:06.907Z,9.20
2023-04-11T00:58:34.577Z,9.10
2023-04-11T01:01:02.073Z,9.10
2023-04-11T01:03:30.250Z,9.10
2023-04-11T01:05:57.590Z,9.00
2023-04-11T01:08:25.407Z,9.00
2023-04-11T01:10:52.791Z,9.00
2023-04-11T01:13:20.460Z,9.00
2023-04-11T01:15:47.518Z,8.90
2023-04-11T01:18:15.552Z,8.90
2023-04-11T01:20:42.760Z,8.90
2023-04-11T01:23:10.994Z,9.00
2023-04-11T01:25:37.966Z,8.90
2023-04-11T01:28:06.358Z,8.90
2023-04-11T01:30:33.376Z,8.80
2023-04-11T01:33:00.677Z,8.80
2023-04-11T01:35:27.746Z,8.80
2023-04-11T01:37:55.098Z,8.80
2023-04-11T01:40:24.048Z,8.80
2023-04-11T01:42:52.155Z,8.70
2023-04-11T01:45:20.968Z,8.70
2023-04-11T01:47:49.626Z,8.60
2023-04-11T01:50:17.914Z,8.60
2023-04-11T01:52:44.830Z,8.60
2023-04-11T01:55:11.891Z,8.50
2023-04-11T01:57:38.778Z,8.50
2023-04-11T02:00:08.898Z,8.60
2023-04-11T02:02:38.944Z,8.60
2023-04-11T02:05:06.445Z,8.50
2023-04-11T02:07:33.529Z,8.60
2023-04-11T02:10:00.716Z,8.60
2023-04-11T02:12:27.648Z,8.60
2023-04-11T02:14:54.579Z,8.60
2023-04-11T02:17:25.921Z,8.50
2023-04-11T02:19:53.221Z,8.60
2023-04-11T02:22:20.213Z,8.50
2023-04-11T02:24:47.674Z,8.50
2023-04-11T02:27:14.740Z,8.50
2023-04-11T02:29:41.748Z,8.50
2023-04-11T02:32:08.920Z,8.50
2023-04-11T02:34:35.981Z,8.40
2023-04-11T02:37:02.947Z,8.40
2023-04-11T02:39:30.036Z,8.40
2023-04-11T02:41:57.370Z,8.40
2023-04-11T02:44:26.301Z,8.40
2023-04-11T02:46:53.520Z,8.40
2023-04-11T02:49:20.524Z,8.30
2023-04-11T02:51:47.953Z,8.30
2023-04-11T02:54:15.001Z,8.30
2023-04-11T02:56:43.362Z,8.30
2023-04-11T02:59:12.410Z,8.30
2023-04-11T03:01:39.478Z,8.20
2023-04-11T03:04:07.317Z,8.20
2023-04-11T03:06:36.014Z,8.20
2023-04-11T03:09:04.004Z,8.10
2023-04-11T03:11:31.000Z,8.10
2023-04-11T03:13:57.984Z,8.00
2023-04-11T03:16:25.700Z,8.10
2023-04-11T03:18:52.849Z,8.10
2023-04-11T03:21:20.007Z,8.10
2023-04-11T03:23:47.044Z,8.00
2023-04-11T03:26:14.432Z,8.00
2023-04-11T03:28:41.444Z,8.00
2023-04-11T03:31:08.528Z,8.00
2023-04-11T03:33:35.592Z,7.90
2023-04-11T03:36:02.649Z,7.90
2023-04-11T03:38:29.904Z,7.90
2023-04-11T03:40:56.920Z,7.90
2023-04-11T03:43:23.970Z,7.90
2023-04-11T03:45:51.927Z,7.90
2023-04-11T03:48:20.327Z,7.90
2023-04-11T03:50:47.735Z,7.90
2023-04-11T03:53:14.787Z,7.90
2023-04-11T03:55:41.724Z,7.90
2023-04-11T03:58:08.665Z,7.90
2023-04-11T04:00:36.430Z,7.80
2023-04-11T04:03:04.006Z,7.80
2023-04-11T04:05:31.153Z,7.80
2023-04-11T04:07:58.171Z,7.70
2023-04-11T04:10:25.264Z,7.60
2023-04-11T04:12:53.528Z,7.60
2023-04-11T04:15:21.464Z,7.50
2023-04-11T04:17:49.594Z,7.40
2023-04-11T04:20:16.689Z,7.30
2023-04-11T04:22:47.515Z,7.30
2023-04-11T04:25:15.902Z,7.30
2023-04-11T04:27:44.479Z,7.30
2023-04-11T04:30:15.493Z,7.20
2023-04-11T04:32:46.163Z,7.20
2023-04-11T04:35:16.815Z,7.20
2023-04-11T04:37:46.614Z,7.20
2023-04-11T04:40:14.103Z,7.20
2023-04-11T04:42:42.179Z,7.20
2023-04-11T04:45:10.712Z,7.20
2023-04-11T04:47:38.508Z,7.20
2023-04-11T04:50:06.419Z,7.10
2023-04-11T04:52:33.389Z,7.10
2023-04-11T04:55:01.306Z,7.00
2023-04-11T04:57:29.603Z,7.00
2023-04-11T04:59:58.759Z,7.00
2023-04-11T05:02:26.978Z,7.00
2023-04-11T05:04:54.852Z,6.90
2023-04-11T05:07:21.868Z,6.80
2023-04-11T05:09:49.023Z,6.80
2023-04-11T05:12:18.052Z,6.80
2023-04-11T05:14:45.028Z,6.70
2023-04-11T05:17:12.049Z,6.70
2023-04-11T05:19:39.016Z,6.70
2023-04-11T05:22:06.011Z,6.70
2023-04-11T05:24:32.940Z,6.70
2023-04-11T05:27:00.639Z,6.80
2023-04-11T05:29:27.603Z,6.80
2023-04-11T05:31:54.508Z,6.90
2023-04-11T05:34:21.512Z,7.00
2023-04-11T05:36:48.464Z,7.10
2023-04-11T05:39:15.770Z,7.20
2023-04-11T05:41:43.300Z,7.20
2023-04-11T05:44:10.262Z,7.20
2023-04-11T05:46:38.419Z,7.30
2023-04-11T05:49:05.798Z,7.30
2023-04-11T05:51:32.809Z,7.40
2023-04-11T05:53:59.783Z,7.40
2023-04-11T05:56:26.730Z,7.50
2023-04-11T05:58:53.921Z,7.50
2023-04-11T06:01:20.933Z,7.70
2023-04-11T06:03:48.643Z,7.70
2023-04-11T06:06:15.868Z,7.80
2023-04-11T06:08:43.014Z,7.90
2023-04-11T06:11:11.387Z,7.90
2023-04-11T06:13:38.291Z,8.00
2023-04-11T06:16:06.831Z,8.00
2023-04-11T06:18:34.041Z,8.10
2023-04-11T06:21:01.183Z,8.20
2023-04-11T06:23:28.218Z,8.30
2023-04-11T06:25:55.643Z,8.30
2023-04-11T06:28:22.595Z,8.40
2023-04-11T06:30:52.210Z,8.40
2023-04-11T06:33:19.209Z,8.50
2023-04-11T06:35:46.300Z,8.60
2023-04-11T06:38:13.294Z,8.70
2023-04-11T06:40:40.386Z,8.90
2023-04-11T06:43:07.304Z,9.10
2023-04-11T06:45:34.333Z,9.30
2023-04-11T06:48:01.341Z,9.60
2023-04-11T06:50:28.275Z,9.80
2023-04-11T06:52:58.348Z,9.80
2023-04-11T06:55:25.862Z,9.90
2023-04-11T06:57:52.747Z,10.00
2023-04-11T07:00:21.075Z,10.30
2023-04-11T07:02:48.306Z,10.70
2023-04-11T07:05:17.541Z,11.10
2023-04-11T07:07:44.558Z,11.50
2023-04-11T07:10:11.613Z,12.10
2023-04-11T07:12:38.543Z,12.80
2023-04-11T07:15:08.595Z,12.90
2023-04-11T07:17:35.826Z,12.60
2023-04-11T07:20:06.637Z,11.90
2023-04-11T07:22:33.773Z,11.40
2023-04-11T07:25:00.726Z,11.20
2023-04-11T07:27:27.832Z,11.10
2023-04-11T07:29:54.752Z,11.00
2023-04-11T07:32:22.898Z,10.90
2023-04-11T07:34:49.910Z,10.90
2023-04-11T07:37:16.819Z,11.00
2023-04-11T07:39:44.713Z,11.00
2023-04-11T07:42:12.117Z,11.30
2023-04-11T07:44:39.050Z,11.80
2023-04-11T07:47:05.987Z,12.60
2023-04-11T07:49:33.990Z,13.60
2023-04-11T07:52:01.740Z,14.30
2023-04-11T07:54:30.353Z,14.60
2023-04-11T07:56:57.297Z,14.70
2023-04-11T07:59:24.191Z,14.80
2023-04-11T08:02:00.455Z,14.80
2023-04-11T08:04:33.579Z,14.70
2023-04-11T08:07:00.664Z,14.50
2023-04-11T08:09:27.797Z,14.60
2023-04-11T08:11:56.827Z,14.40
2023-04-11T08:14:24.121Z,13.80
2023-04-11T08:16:53.269Z,13.60
2023-04-11T08:19:21.172Z,13.30
2023-04-11T08:21:48.382Z,13.60
2023-04-11T08:24:15.301Z,13.60
2023-04-11T08:26:43.288Z,13.40
2023-04-11T08:29:12.861Z,13.20
2023-04-11T08:31:46.657Z,13.30
2023-04-11T08:34:13.833Z,13.30
2023-04-11T08:36:41.722Z,13.30
2023-04-11T08:39:09.028Z,13.40
2023-04-11T08:41:38.340Z,13.50
2023-04-11T08:44:05.723Z,13.40
2023-04-11T08:46:33.911Z,13.60
2023-04-11T08:49:01.416Z,13.70
2023-04-11T08:51:28.352Z,13.90
2023-04-11T08:54:00.534Z,13.60
2023-04-11T08:56:28.555Z,13.50
2023-04-11T08:58:55.607Z,13.40
2023-04-11T09:01:34.159Z,13.60
2023-04-11T09:04:05.052Z,13.80
2023-04-11T09:06:33.859Z,13.70
2023-04-11T09:09:06.555Z,13.80
2023-04-11T09:11:54.776Z,13.70
2023-04-11T09:14:26.784Z,13.50
2023-04-11T09:17:06.121Z,13.30
2023-04-11T09:19:35.066Z,13.20
2023-04-11T09:22:06.148Z,12.90
2023-04-11T09:24:35.405Z,12.60
2023-04-11T09:27:13.144Z,12.90
2023-04-11T09:29:48.150Z,13.10
2023-04-11T09:32:35.102Z,13.20
2023-04-11T09:35:15.812Z,12.90
2023-04-11T09:37:51.049Z,13.00
2023-04-11T09:40:22.722Z,13.20
2023-04-11T09:42:59.745Z,13.00
2023-04-11T09:45:28.616Z,12.80
2023-04-11T09:47:58.292Z,13.00
2023-04-11T09:50:27.337Z,13.10
2023-04-11T09:52:59.443Z,13.60
2023-04-11T09:55:27.036Z,13.90
2023-04-11T09:57:55.191Z,14.30
2023-04-11T10:00:30.186Z,14.60
2023-04-11T10:02:57.490Z,14.60
2023-04-11T10:05:30.494Z,14.70
2023-04-11T10:08:06.398Z,14.50
2023-04-11T10:10:34.136Z,14.00
2023-04-11T10:13:01.215Z,13.70
2023-04-11T10:15:29.067Z,13.50
2023-04-11T10:18:09.918Z,14.00
2023-04-11T10:20:40.439Z,14.60
2023-04-11T10:23:07.625Z,14.50
2023-04-11T10:25:50.567Z,15.00
2023-04-11T10:28:39.018Z,14.70
2023-04-11T10:31:14.058Z,14.60
2023-04-11T10:34:17.027Z,14.70
2023-04-11T10:37:08.334Z,14.40
2023-04-11T10:39:50.860Z,14.00
2023-04-11T10:42:31.737Z,14.30
2023-04-11T10:45:18.013Z,14.30
2023-04-11T10:48:08.121Z,14.10
2023-04-11T10:50:40.049Z,13.90
2023-04-11T10:53:14.303Z,13.70
2023-04-11T10:55:47.210Z,13.50
2023-04-11T10:58:19.722Z,13.60
2023-04-11T11:00:49.816Z,13.90
2023-04-11T11:03:28.121Z,14.10
2023-04-11T11:06:06.289Z,13.80
2023-04-11T11:08:41.919Z,13.50
2023-04-11T11:11:11.279Z,13.60
2023-04-11T11:13:42.070Z,13.70
2023-04-11T11:16:47.826Z,14.20
2023-04-11T11:19:14.938Z,15.00
2023-04-11T11:21:42.471Z,15.30
2023-04-11T11:24:09.627Z,15.40
2023-04-11T11:26:41.547Z,15.40
2023-04-11T11:29:10.449Z,14.90
2023-04-11T11:31:42.872Z,14.50
2023-04-11T11:36:45.280Z,15.20
2023-04-11T11:39:13.094Z,15.30
2023-04-11T11:41:41.423Z,15.70
2023-04-11T11:44:29.199Z,15.70
2023-04-11T11:47:12.701Z,15.40
2023-04-11T11:49:56.648Z,15.80
2023-04-11T11:52:40.959Z,15.90
2023-04-11T11:55:29.288Z,16.20
2023-04-11T11:58:02.112Z,16.60
2023-04-11T12:00:32.528Z,16.40
2023-04-11T12:03:02.931Z,15.80
2023-04-11T12:05:32.906Z,15.20
2023-04-11T12:08:06.418Z,15.00
2023-04-11T12:10:51.619Z,14.50
2023-04-11T12:13:25.417Z,14.30
2023-04-11T12:15:57.865Z,14.10
2023-04-11T12:18:27.440Z,13.90
2023-04-11T12:20:55.427Z,14.00
2023-04-11T12:23:23.038Z,14.50
2023-04-11T12:25:50.527Z,14.90
2023-04-11T12:28:17.488Z,15.20
2023-04-11T12:30:44.470Z,15.10
2023-04-11T12:33:11.383Z,15.20
2023-04-11T12:35:38.274Z,15.30
2023-04-11T12:38:07.833Z,15.20
2023-04-11T12:40:34.782Z,15.10
2023-04-11T12:43:01.670Z,15.10
2023-04-11T12:45:28.846Z,15.20
2023-04-11T12:47:55.858Z,15.00
2023-04-11T12:50:25.850Z,14.90
2023-04-11T12:52:53.180Z,14.90
2023-04-11T12:55:20.176Z,14.70
2023-04-11T12:57:47.116Z,14.70
2023-04-11T13:00:15.261Z,14.80
2023-04-11T13:02:44.989Z,15.20
2023-04-11T13:05:16.674Z,15.70
2023-04-11T13:07:46.288Z,16.00
2023-04-11T13:10:15.844Z,15.80
2023-04-11T13:12:45.036Z,15.60
2023-04-11T13:15:15.353Z,15.20
2023-04-11T13:17:43.114Z,14.90
2023-04-11T13:20:11.234Z,14.90
2023-04-11T13:22:42.302Z,15.00
2023-04-11T13:25:10.714Z,15.10
2023-04-11T13:27:39.750Z,15.30
2023-04-11T13:30:08.452Z,15.50
2023-04-11T13:32:35.696Z,15.20
2023-04-11T13:35:03.885Z,15.00
2023-04-11T13:37:30.824Z,14.80
2023-04-11T13:39:57.717Z,14.90
2023-04-11T13:42:24.705Z,15.20
2023-04-11T13:44:51.657Z,15.30
2023-04-11T13:47:18.610Z,14.70
2023-04-11T13:49:45.647Z,14.70
2023-04-11T13:52:12.556Z,14.80
2023-04-11T13:54:39.578Z,14.90
2023-04-11T13:57:09.472Z,15.10
2023-04-11T13:59:36.611Z,15.40
2023-04-11T14:02:03.626Z,15.60
2023-04-11T14:04:31.438Z,15.30
2023-04-11T14:06:58.496Z,15.00
2023-04-11T14:09:25.570Z,14.60
2023-04-11T14:11:52.600Z,14.60
2023-04-11T14:14:19.558Z,14.50
2023-04-11T14:16:46.546Z,14.50
2023-04-11T14:19:13.551Z,14.50
2023-04-11T14:21:40.616Z,14.40
2023-04-11T14:24:08.594Z,14.50
2023-04-11T14:26:35.617Z,14.50
2023-04-11T14:29:02.862Z,14.50
2023-04-11T14:31:30.378Z,14.40
2023-04-11T14:33:57.672Z,14.40
2023-04-11T14:36:24.820Z,14.30
2023-04-11T14:38:51.733Z,14.10
2023-04-11T14:41:19.398Z,14.00
2023-04-11T14:43:46.365Z,14.00
2023-04-11T14:46:13.362Z,14.00
2023-04-11T14:48:40.508Z,14.00
2023-04-11T14:51:07.843Z,14.10
2023-04-11T14:53:34.869Z,14.20
2023-04-11T14:56:06.498Z,14.40
2023-04-11T14:58:34.096Z,14.30
2023-04-11T15:01:01.164Z,14.20
2023-04-11T15:03:28.481Z,14.30
2023-04-11T15:05:55.664Z,14.30
2023-04-11T15:08:23.812Z,14.30
2023-04-11T15:10:54.366Z,14.30
2023-04-11T15:13:22.624Z,14.10
2023-04-11T15:15:49.719Z,14.20
2023-04-11T15:18:24.726Z,14.30
2023-04-11T15:20:52.647Z,14.10
2023-04-11T15:23:20.693Z,14.00
2023-04-11T15:25:54.330Z,13.90
2023-04-11T15:28:21.856Z,13.80
2023-04-11T15:30:51.812Z,13.80
2023-04-11T15:33:21.025Z,13.70
2023-04-11T15:35:48.219Z,13.60
2023-04-11T15:38:15.610Z,13.60
2023-04-11T15:40:43.006Z,13.60
2023-04-11T15:43:10.270Z,13.60
2023-04-11T15:45:39.731Z,13.50
2023-04-11T15:48:06.990Z,13.50
2023-04-11T15:50:36.570Z,13.50
2023-04-11T15:53:03.449Z,13.60
2023-04-11T15:55:30.724Z,13.50
2023-04-11T15:57:57.682Z,13.50
2023-04-11T16:00:27.203Z,13.50
2023-04-11T16:02:54.799Z,13.60
2023-04-11T16:05:22.106Z,13.60
2023-04-11T16:07:50.199Z,13.60
2023-04-11T16:10:17.470Z,13.50
2023-04-11T16:12:44.570Z,13.40
2023-04-11T16:15:11.721Z,13.40
2023-04-11T16:17:39.379Z,13.30
2023-04-11T16:20:09.711Z,13.20
2023-04-11T16:22:39.657Z,13.00
2023-04-11T16:25:07.564Z,12.90
2023-04-11T16:27:34.888Z,12.90
2023-04-11T16:30:05.593Z,12.80
2023-04-11T16:32:33.393Z,12.70
2023-04-11T16:35:00.944Z,12.80
2023-04-11T16:37:28.508Z,12.80
2023-04-11T16:39:56.551Z,12.70
2023-04-11T16:42:23.738Z,12.70
2023-04-11T16:44:50.974Z,12.60
2023-04-11T16:47:18.852Z,12.70
2023-04-11T16:49:47.048Z,12.70
2023-04-11T16:52:14.480Z,12.60
2023-04-11T16:54:41.525Z,12.50
2023-04-11T16:57:11.567Z,12.50
2023-04-11T16:59:39.040Z,12.50
2023-04-11T17:02:06.071Z,12.40
2023-04-11T17:04:33.400Z,12.50
2023-04-11T17:07:02.560Z,12.50
2023-04-11T17:09:30.285Z,12.50
2023-04-11T17:11:57.844Z,12.50
2023-04-11T17:14:25.062Z,12.40
2023-04-11T17:16:52.210Z,12.40
2023-04-11T17:19:19.223Z,12.40
2023-04-11T17:21:46.612Z,12.30
2023-04-11T17:24:13.600Z,12.30
2023-04-11T17:26:40.538Z,12.20
2023-04-11T17:29:08.316Z,12.20
2023-04-11T17:31:35.368Z,12.20
2023-04-11T17:34:02.411Z,12.10
2023-04-11T17:36:31.006Z,12.10
2023-04-11T17:38:58.086Z,12.10
2023-04-11T17:41:25.081Z,12.10
2023-04-11T17:43:56.784Z,12.10
2023-04-11T17:46:24.100Z,12.00
2023-04-11T17:48:51.124Z,12.00
2023-04-11T17:51:20.573Z,11.90
2023-04-11T17:53:49.934Z,11.90
2023-04-11T17:56:16.977Z,11.70
2023-04-11T17:58:45.321Z,11.60
2023-04-11T18:01:12.794Z,11.40
2023-04-11T18:03:41.216Z,11.20
2023-04-11T18:06:08.833Z,11.10
2023-04-11T18:08:50.626Z,11.00
2023-04-11T18:11:19.502Z,11.00
2023-04-11T18:13:49.887Z,10.80
2023-04-11T18:16:17.765Z,10.80
2023-04-11T18:18:46.179Z,10.80
2023-04-11T18:21:13.334Z,10.80
2023-04-11T18:23:40.612Z,10.80
2023-04-11T18:26:07.640Z,10.80
2023-04-11T18:28:34.699Z,10.80
2023-04-11T18:31:01.984Z,10.80
2023-04-11T18:33:29.270Z,10.80
2023-04-11T18:35:56.528Z,10.80
2023-04-11T18:38:23.698Z,10.80
2023-04-11T18:40:54.994Z,10.80
2023-04-11T18:43:23.883Z,10.80
2023-04-11T18:45:50.987Z,10.80
2023-04-11T18:48:18.041Z,10.70
2023-04-11T18:50:48.467Z,10.70
2023-04-11T18:53:15.852Z,10.70
2023-04-11T18:55:42.849Z,10.60
2023-04-11T18:58:11.209Z,10.50
2023-04-11T19:00:40.859Z,10.40
2023-04-11T19:03:15.618Z,10.30
2023-04-11T19:05:44.129Z,10.30
2023-04-11T19:08:11.569Z,10.30
2023-04-11T19:10:38.649Z,10.20
2023-04-11T19:13:06.576Z,10.10
2023-04-11T19:15:33.684Z,10.10
2023-04-11T19:18:01.853Z,10.00
2023-04-11T19:20:29.765Z,10.00
2023-04-11T19:22:57.086Z,10.00
2023-04-11T19:25:24.313Z,9.90
2023-04-11T19:27:51.597Z,9.90
2023-04-11T19:30:18.557Z,9.80
2023-04-11T19:32:47.588Z,9.70
2023-04-11T19:35:15.694Z,9.70
2023-04-11T19:37:42.772Z,9.70
2023-04-11T19:40:16.686Z,9.60
2023-04-11T19:42:45.320Z,9.60
2023-04-11T19:45:12.411Z,9.50
2023-04-11T19:47:41.119Z,9.40
2023-04-11T19:50:15.095Z,9.30
2023-04-11T19:52:43.412Z,9.30
2023-04-11T19:55:12.153Z,9.30
2023-04-11T19:57:40.186Z,9.20
2023-04-11T20:00:13.578Z,9.20
2023-04-11T20:02:46.769Z,9.20
2023-04-11T20:05:16.468Z,9.10
2023-04-11T20:07:44.382Z,9.20
2023-04-11T20:10:13.396Z,9.10
2023-04-11T20:12:41.347Z,9.10
2023-04-11T20:15:09.417Z,9.10
2023-04-11T20:17:36.427Z,9.10
2023-04-11T20:20:06.598Z,9.10
2023-04-11T20:22:33.610Z,9.10
2023-04-11T20:25:00.624Z,9.10
2023-04-11T20:27:28.289Z,9.10
2023-04-11T20:29:56.663Z,9.10
2023-04-11T20:32:23.757Z,9.10
2023-04-11T20:34:50.889Z,9.10
2023-04-11T20:37:19.368Z,9.10
2023-04-11T20:39:46.378Z,9.10
2023-04-11T20:42:13.758Z,9.00
2023-04-11T20:44:42.577Z,9.00
2023-04-11T20:47:09.634Z,9.00
2023-04-11T20:49:36.575Z,9.00
2023-04-11T20:52:03.726Z,9.00
2023-04-11T20:54:30.742Z,9.00
2023-04-11T20:56:57.835Z,8.90
2023-04-11T20:59:24.808Z,8.90
2023-04-11T21:01:53.681Z,8.90
2023-04-11T21:04:22.422Z,8.90
2023-04-11T21:06:50.211Z,8.90
2023-04-11T21:09:17.627Z,8.80
2023-04-11T21:11:44.714Z,8.90
2023-04-11T21:14:11.626Z,8.90
2023-04-11T21:16:38.795Z,9.00
2023-04-11T21:19:06.000Z,9.00
2023-04-11T21:21:33.499Z,9.00
2023-04-11T21:24:01.412Z,9.00
2023-04-11T21:26:28.370Z,9.00
2023-04-11T21:28:55.995Z,9.00
2023-04-11T21:31:22.978Z,8.90
2023-04-11T21:33:49.949Z,9.00
2023-04-11T21:36:16.870Z,9.00
2023-04-11T21:38:43.830Z,9.00
2023-04-11T21:41:11.070Z,9.10
2023-04-11T21:43:37.999Z,9.10
2023-04-11T21:46:05.337Z,9.10
2023-04-11T21:48:32.457Z,9.10
2023-04-11T21:50:59.431Z,9.10
2023-04-11T21:53:26.853Z,9.10
2023-04-11T21:55:53.774Z,9.00
2023-04-11T21:58:29.150Z,9.00
2023-04-11T22:00:57.039Z,9.00
2023-04-11T22:03:24.445Z,9.00
2023-04-11T22:05:52.394Z,9.00
2023-04-11T22:08:22.414Z,9.00
2023-04-11T22:10:50.695Z,9.00
2023-04-11T22:13:19.475Z,9.00
2023-04-11T22:16:05.283Z,9.00
2023-04-11T22:18:38.185Z,9.10
2023-04-11T22:21:09.174Z,9.10
2023-04-11T22:23:36.138Z,9.10
2023-04-11T22:26:03.153Z,9.00
2023-04-11T22:28:30.198Z,9.00
2023-04-11T22:30:57.828Z,9.00
2023-04-11T22:33:24.839Z,9.00
2023-04-11T22:35:53.589Z,9.00
2023-04-11T22:38:21.535Z,9.10
2023-04-11T22:40:48.467Z,9.10
2023-04-11T22:43:15.518Z,9.10
2023-04-11T22:45:43.041Z,9.10
2023-04-11T22:48:10.158Z,9.10
2023-04-11T22:50:37.368Z,9.10
2023-04-11T22:53:04.675Z,9.10
2023-04-11T22:55:35.628Z,9.10
2023-04-11T22:58:03.468Z,9.10
2023-04-11T23:00:31.483Z,9.10
2023-04-11T23:02:59.932Z,9.10
2023-04-11T23:05:27.049Z,9.10
2023-04-11T23:07:54.191Z,9.20
2023-04-11T23:10:21.369Z,9.20
2023-04-11T23:12:49.522Z,9.20
2023-04-11T23:15:17.383Z,9.10
2023-04-11T23:17:44.920Z,9.10
2023-04-11T23:20:13.804Z,9.20
2023-04-11T23:22:42.461Z,9.10
2023-04-11T23:25:10.979Z,9.20
2023-04-11T23:27:38.944Z,9.10
2023-04-11T23:30:07.508Z,9.10
2023-04-11T23:32:34.707Z,9.10
2023-04-11T23:35:03.071Z,9.10
2023-04-11T23:37:31.663Z,9.10
2023-04-11T23:39:59.633Z,9.20
2023-04-11T23:42:26.761Z,9.10
2023-04-11T23:44:53.831Z,9.10
2023-04-11T23:47:20.831Z,9.10
2023-04-11T23:49:47.817Z,9.10
2023-04-11T23:52:14.876Z,9.10
2023-04-11T23:54:41.793Z,9.10
2023-04-11T23:57:08.879Z,9.10
2023-04-11T23:59:36.225Z,9.20
